Time;durP1;ratioP1;P1;durP2;ratioP2;P2;SDS_P1;SDS_P2;PMS_P1;PMS_P2;Temp;Humidity;BMP_temperature;BMP_pressure;BME280_temperature;BME280_humidity;BME280_pressure;Samples;Min_cycle;Max_cycle;Signal;HPM_P1;HPM_P2
2022/02/18 00:01:36;;;;;;;20.73;13.20;;;;;;;3.75;100.00;96076.19;5097531;28;20043;-61
2022/02/18 00:04:03;;;;;;;18.92;11.90;;;;;;;3.71;100.00;96077.31;5096590;28;20065;-61
2022/02/18 00:06:30;;;;;;;14.07;10.57;;;;;;;3.67;100.00;96074.06;5100045;28;20411;-61
2022/02/18 00:08:56;;;;;;;19.20;11.82;;;;;;;3.65;100.00;96062.91;5094919;28;20043;-61
2022/02/18 00:11:21;;;;;;;13.88;9.88;;;;;;;3.60;100.00;96064.91;5094254;28;20028;-61
2022/02/18 00:13:47;;;;;;;15.25;8.38;;;;;;;3.57;100.00;96062.50;5099282;28;20142;-61
2022/02/18 00:16:12;;;;;;;15.73;10.60;;;;;;;3.81;100.00;96057.63;5075570;28;20034;-61
2022/02/18 00:18:38;;;;;;;15.57;10.43;;;;;;;3.63;100.00;96054.31;5093686;28;20043;-61
2022/02/18 00:21:03;;;;;;;6.38;5.22;;;;;;;3.62;100.00;96042.22;5094286;28;20502;-61
2022/02/18 00:23:28;;;;;;;9.73;5.38;;;;;;;3.51;100.00;96049.84;5091042;28;20028;-61
2022/02/18 00:25:54;;;;;;;6.70;5.78;;;;;;;3.43;100.00;96048.53;5094753;28;20471;-61
2022/02/18 00:28:21;;;;;;;7.25;4.32;;;;;;;3.36;100.00;96038.56;5067527;28;20137;-61
2022/02/18 00:30:47;;;;;;;6.05;4.82;;;;;;;3.35;100.00;96042.91;5093133;28;20023;-61
2022/02/18 00:33:13;;;;;;;9.50;6.25;;;;;;;3.28;100.00;96039.00;5099183;28;20034;-61
2022/02/18 00:35:38;;;;;;;10.80;6.65;;;;;;;3.24;100.00;96037.50;5091337;28;20028;-61
2022/02/18 00:38:04;;;;;;;10.45;6.45;;;;;;;3.19;100.00;96039.50;5092676;28;20024;-61
2022/02/18 00:40:30;;;;;;;8.57;6.43;;;;;;;3.19;100.00;96042.09;5096572;28;20035;-61
2022/02/18 00:42:56;;;;;;;10.85;6.97;;;;;;;3.23;100.00;96049.66;5094742;28;20034;-61
2022/02/18 00:45:22;;;;;;;11.63;7.20;;;;;;;3.36;100.00;96054.19;5093915;28;20040;-61
2022/02/18 00:47:47;;;;;;;9.48;6.45;;;;;;;3.38;100.00;96050.53;5100756;28;20403;-61
2022/02/18 00:50:13;;;;;;;10.52;7.45;;;;;;;3.41;100.00;96044.34;5093810;28;20032;-61
2022/02/18 00:52:39;;;;;;;15.50;7.88;;;;;;;3.37;100.00;96037.63;5095937;28;20039;-61
2022/02/18 00:55:05;;;;;;;18.08;8.27;;;;;;;3.34;100.00;96038.63;5091014;28;20031;-61
2022/02/18 00:57:30;;;;;;;22.73;7.65;;;;;;;3.35;100.00;96044.69;5093170;28;20027;-61
2022/02/18 00:59:56;;;;;;;11.32;6.30;;;;;;;3.38;100.00;96050.53;5095971;28;20414;-61
2022/02/18 01:02:21;;;;;;;7.97;4.88;;;;;;;3.37;100.00;96054.06;5091552;28;20070;-61
2022/02/18 01:04:46;;;;;;;7.20;5.00;;;;;;;3.42;100.00;96049.44;5090829;28;20028;-61
2022/02/18 01:07:12;;;;;;;7.72;5.70;;;;;;;3.49;100.00;96047.31;5086259;28;20036;-61
2022/02/18 01:09:37;;;;;;;8.20;5.15;;;;;;;3.39;100.00;96046.19;5101791;28;20035;-62
2022/02/18 01:12:03;;;;;;;5.75;4.38;;;;;;;3.32;100.00;96044.88;5094605;28;20039;-61
2022/02/18 01:14:28;;;;;;;6.10;4.13;;;;;;;3.28;100.00;96047.63;5091923;28;20479;-61
2022/02/18 01:16:54;;;;;;;4.15;3.50;;;;;;;3.34;100.00;96043.84;5095978;28;20884;-62
2022/02/18 01:19:19;;;;;;;9.65;3.40;;;;;;;3.42;100.00;96054.63;5091723;28;20070;-61
2022/02/18 01:21:45;;;;;;;7.47;4.43;;;;;;;3.42;100.00;96052.03;5091503;28;20506;-61
2022/02/18 01:24:10;;;;;;;5.72;4.53;;;;;;;3.43;100.00;96053.75;5100629;28;20027;-61
2022/02/18 01:26:36;;;;;;;10.93;7.93;;;;;;;3.39;100.00;96044.41;5091699;28;20123;-61
2022/02/18 01:29:02;;;;;;;10.40;7.30;;;;;;;3.33;100.00;96038.75;5083483;28;20040;-61
2022/02/18 01:31:28;;;;;;;10.68;7.10;;;;;;;3.26;100.00;96033.03;5092585;28;20040;-61
2022/02/18 01:33:54;;;;;;;8.20;5.72;;;;;;;3.19;100.00;96031.69;5098980;28;20476;-61
2022/02/18 01:36:19;;;;;;;10.45;6.40;;;;;;;3.15;100.00;96029.28;5091424;28;20036;-61
2022/02/18 01:38:46;;;;;;;10.00;5.85;;;;;;;3.14;100.00;96032.00;5090960;28;20075;-61
2022/02/18 01:41:11;;;;;;;7.07;5.55;;;;;;;3.10;100.00;96028.72;5093033;28;20032;-61
2022/02/18 01:43:46;;;;;;;7.22;4.88;;;;;;;3.00;100.00;96019.78;5098863;28;20032;-61
2022/02/18 01:46:11;;;;;;;6.97;5.32;;;;;;;2.92;100.00;96019.34;5087054;28;20023;-61
2022/02/18 01:48:36;;;;;;;11.55;5.63;;;;;;;2.90;100.00;96026.41;5094010;28;20073;-61
2022/02/18 01:51:02;;;;;;;8.45;6.78;;;;;;;2.89;100.00;96017.78;5093561;28;20028;-61
2022/02/18 01:53:27;;;;;;;32.00;16.90;;;;;;;3.32;100.00;96022.28;5092268;28;20031;-62
2022/02/18 01:55:53;;;;;;;21.73;13.30;;;;;;;3.14;100.00;96012.00;5095036;28;20419;-61
2022/02/18 01:58:23;;;;;;;20.35;13.85;;;;;;;3.08;100.00;96011.50;5094256;28;20032;-61
2022/02/18 02:00:48;;;;;;;17.55;12.88;;;;;;;3.04;100.00;96017.81;5091867;28;20031;-61
2022/02/18 02:03:14;;;;;;;18.55;12.82;;;;;;;2.96;100.00;96013.91;5092108;28;20031;-61
2022/02/18 02:05:40;;;;;;;14.40;9.73;;;;;;;2.92;100.00;96007.19;5091207;28;20437;-61
2022/02/18 02:08:06;;;;;;;10.05;8.02;;;;;;;2.90;100.00;96005.59;5099527;28;20023;-61
2022/02/18 02:10:33;;;;;;;17.17;11.55;;;;;;;2.84;100.00;95997.22;5091036;28;20208;-61
2022/02/18 02:12:59;;;;;;;27.85;15.00;;;;;;;2.78;100.00;95989.78;5093449;28;20513;-61
2022/02/18 02:15:27;;;;;;;19.92;12.80;;;;;;;2.74;100.00;95980.44;5092792;28;20039;-61
2022/02/18 02:17:52;;;;;;;21.67;12.02;;;;;;;2.72;100.00;95975.34;5091544;28;20047;-61
2022/02/18 02:20:20;;;;;;;19.50;11.80;;;;;;;2.70;100.00;95972.00;5087817;28;20028;-61
2022/02/18 02:22:46;;;;;;;20.58;11.45;;;;;;;2.74;100.00;95971.81;5092586;28;20084;-61
2022/02/18 02:25:12;;;;;;;13.05;10.80;;;;;;;2.74;100.00;95970.03;5065762;28;20398;-61
2022/02/18 02:27:39;;;;;;;17.58;10.20;;;;;;;2.70;100.00;95966.81;5089558;28;20043;-61
2022/02/18 02:30:09;;;;;;;14.32;9.70;;;;;;;2.61;100.00;95959.50;5087874;28;20065;-61
2022/02/18 02:32:34;;;;;;;16.13;9.57;;;;;;;2.49;100.00;95957.59;5086933;28;20399;-61
2022/02/18 02:35:00;;;;;;;14.80;7.70;;;;;;;2.42;100.00;95952.72;5085919;28;20041;-61
2022/02/18 02:37:25;;;;;;;12.55;7.65;;;;;;;2.41;100.00;95950.22;5094397;28;20585;-61
2022/02/18 02:39:50;;;;;;;7.97;6.15;;;;;;;2.41;100.00;95942.44;5101142;28;20032;-62
2022/02/18 02:42:16;;;;;;;8.27;5.72;;;;;;;2.39;100.00;95936.50;5092901;28;20044;-61
2022/02/18 02:44:41;;;;;;;7.95;5.75;;;;;;;2.39;100.00;95933.91;5090700;28;20107;-61
2022/02/18 02:47:07;;;;;;;7.97;5.45;;;;;;;2.37;100.00;95933.97;5091078;28;20042;-61
2022/02/18 02:49:33;;;;;;;7.43;5.45;;;;;;;2.39;100.00;95926.09;5091413;28;20043;-61
2022/02/18 02:51:58;;;;;;;8.68;6.07;;;;;;;2.38;100.00;95925.25;5096695;28;20027;-61
2022/02/18 02:54:25;;;;;;;9.38;5.55;;;;;;;2.27;100.00;95923.25;5091453;28;20035;-61
2022/02/18 02:56:52;;;;;;;10.65;4.80;;;;;;;2.21;100.00;95918.41;5096827;28;20408;-61
2022/02/18 02:59:18;;;;;;;8.15;4.60;;;;;;;2.23;100.00;95920.94;5092366;28;20032;-61
2022/02/18 03:01:44;;;;;;;5.40;4.40;;;;;;;2.28;100.00;95929.28;5085721;28;20028;-62
2022/02/18 03:04:09;;;;;;;5.05;4.57;;;;;;;2.23;100.00;95926.94;5090942;28;20503;-61
2022/02/18 03:06:35;;;;;;;6.60;5.05;;;;;;;2.22;100.00;95929.63;5093024;28;20114;-61
2022/02/18 03:09:00;;;;;;;5.28;4.78;;;;;;;2.17;100.00;95935.09;5087763;28;21160;-61
2022/02/18 03:11:26;;;;;;;10.52;6.07;;;;;;;2.17;100.00;95939.44;5095889;28;20028;-61
2022/02/18 03:13:54;;;;;;;11.10;8.27;;;;;;;2.20;100.00;95934.06;5100012;28;20027;-61
2022/02/18 03:16:21;;;;;;;13.52;7.55;;;;;;;2.15;100.00;95934.34;5096053;28;20411;-61
2022/02/18 03:18:48;;;;;;;9.77;6.93;;;;;;;2.09;100.00;95937.25;5096133;28;21042;-61
2022/02/18 03:21:14;;;;;;;9.05;5.57;;;;;;;2.06;100.00;95932.22;5094347;28;20028;-61
2022/02/18 03:23:40;;;;;;;8.40;6.22;;;;;;;2.04;100.00;95927.13;5099607;28;20016;-61
2022/02/18 03:26:09;;;;;;;6.85;5.28;;;;;;;2.02;100.00;95922.94;5098060;28;20031;-61
2022/02/18 03:28:34;;;;;;;6.28;5.32;;;;;;;1.98;100.00;95922.25;5089946;28;20028;-61
2022/02/18 03:31:00;;;;;;;7.72;5.13;;;;;;;1.92;100.00;95923.44;5093029;28;20024;-61
2022/02/18 03:33:26;;;;;;;6.40;4.15;;;;;;;1.91;100.00;95919.16;5095453;28;20066;-61
2022/02/18 03:35:51;;;;;;;5.32;3.75;;;;;;;1.95;100.00;95915.47;5091434;28;20054;-61
2022/02/18 03:38:17;;;;;;;3.50;3.20;;;;;;;1.95;100.00;95915.47;5094909;28;20032;-61
2022/02/18 03:40:43;;;;;;;6.88;3.80;;;;;;;1.89;100.00;95923.59;5096621;28;20032;-61
2022/02/18 03:43:08;;;;;;;4.32;3.10;;;;;;;2.08;100.00;95907.00;5100790;28;20023;-61
2022/02/18 03:45:33;;;;;;;6.32;3.15;;;;;;;2.01;100.00;95911.72;5093676;28;20154;-61
2022/02/18 03:47:59;;;;;;;4.22;3.90;;;;;;;1.98;100.00;95906.66;5093045;28;20051;-61
2022/02/18 03:50:24;;;;;;;8.32;4.78;;;;;;;1.97;100.00;95899.78;5098383;28;20067;-61
2022/02/18 03:52:53;;;;;;;6.68;4.78;;;;;;;1.94;100.00;95898.22;5100950;28;20055;-61
2022/02/18 03:55:20;;;;;;;6.55;4.60;;;;;;;1.88;100.00;95893.38;5100452;28;20023;-61
2022/02/18 03:57:45;;;;;;;6.75;5.28;;;;;;;1.82;100.00;95885.91;5097363;28;20115;-61
2022/02/18 04:00:11;;;;;;;8.73;6.68;;;;;;;1.80;100.00;95887.75;5101309;28;20166;-61
2022/02/18 04:02:37;;;;;;;7.45;6.50;;;;;;;1.75;100.00;95887.16;5100216;28;20035;-61
2022/02/18 04:05:03;;;;;;;6.50;5.22;;;;;;;1.68;100.00;95886.63;5097007;28;20032;-61
2022/02/18 04:07:29;;;;;;;7.25;5.03;;;;;;;1.66;100.00;95885.88;5097308;28;20089;-61
2022/02/18 04:09:55;;;;;;;6.20;5.60;;;;;;;1.71;100.00;95889.06;5100394;28;20123;-61
2022/02/18 04:12:20;;;;;;;29.98;21.05;;;;;;;1.70;100.00;95887.41;5079779;28;20028;-61
2022/02/18 04:14:46;;;;;;;37.85;32.95;;;;;;;1.85;100.00;95883.97;5097816;28;20125;-61
2022/02/18 04:17:11;;;;;;;23.70;20.60;;;;;;;1.84;100.00;95889.25;5097770;28;20543;-61
2022/02/18 04:19:37;;;;;;;23.02;15.60;;;;;;;1.81;100.00;95882.47;5102129;28;20055;-61
2022/02/18 04:22:02;;;;;;;32.78;22.35;;;;;;;1.77;100.00;95886.16;5096489;28;20028;-61
2022/02/18 04:24:28;;;;;;;26.20;19.77;;;;;;;1.73;100.00;95889.00;5097808;28;20479;-61
2022/02/18 04:26:53;;;;;;;19.83;12.68;;;;;;;1.83;100.00;95896.22;5097891;28;20059;-61
2022/02/18 04:29:19;;;;;;;6.93;6.07;;;;;;;1.78;100.00;95899.97;5095753;28;20040;-61
2022/02/18 04:31:44;;;;;;;6.30;5.70;;;;;;;1.78;100.00;95890.44;5098171;28;20059;-61
2022/02/18 04:34:10;;;;;;;9.70;6.20;;;;;;;1.75;100.00;95889.75;5096264;28;20032;-61
2022/02/18 04:36:35;;;;;;;5.30;4.80;;;;;;;1.77;100.00;95888.75;5097261;28;20024;-61
2022/02/18 04:39:00;;;;;;;8.23;6.43;;;;;;;1.70;100.00;95880.47;5098836;28;20616;-61
2022/02/18 04:41:26;;;;;;;6.38;5.85;;;;;;;1.65;100.00;95863.44;5097195;28;20028;-61
2022/02/18 04:43:51;;;;;;;6.10;5.50;;;;;;;1.53;100.00;95852.78;5097261;28;20027;-61
2022/02/18 04:46:17;;;;;;;5.32;4.93;;;;;;;1.47;100.00;95844.53;5096475;28;20190;-61
2022/02/18 04:48:42;;;;;;;8.27;4.40;;;;;;;1.49;100.00;95837.50;5097047;28;20396;-61
2022/02/18 04:51:08;;;;;;;4.93;4.53;;;;;;;1.53;100.00;95831.22;5097573;28;20024;-61
2022/02/18 04:53:33;;;;;;;7.07;5.75;;;;;;;1.54;100.00;95823.31;5097979;28;20039;-61
2022/02/18 04:55:58;;;;;;;9.18;7.43;;;;;;;1.55;100.00;95824.19;5098126;28;20027;-61
2022/02/18 04:58:24;;;;;;;9.75;8.40;;;;;;;1.55;100.00;95812.06;5097353;28;20107;-61
2022/02/18 05:00:49;;;;;;;10.25;6.35;;;;;;;1.59;100.00;95809.28;5097282;28;20032;-63
2022/02/18 05:03:15;;;;;;;6.90;6.20;;;;;;;1.52;100.00;95813.97;5097192;28;20034;-61
2022/02/18 05:05:41;;;;;;;5.75;5.35;;;;;;;1.41;100.00;95810.19;5096493;28;20056;-61
2022/02/18 05:08:06;;;;;;;7.78;4.80;;;;;;;1.62;100.00;95811.72;5099438;28;20032;-61
2022/02/18 05:10:32;;;;;;;9.40;7.57;;;;;;;1.47;100.00;95811.63;5100038;28;20114;-61
2022/02/18 05:12:57;;;;;;;7.35;6.47;;;;;;;1.45;100.00;95815.22;5096196;28;20028;-61
2022/02/18 05:15:22;;;;;;;8.75;6.78;;;;;;;1.39;100.00;95817.22;5095022;28;20036;-61
2022/02/18 05:17:48;;;;;;;9.68;7.60;;;;;;;1.34;100.00;95821.81;5100354;28;20104;-61
2022/02/18 05:20:17;;;;;;;11.32;7.93;;;;;;;1.34;100.00;95823.59;5099157;28;20039;-61
2022/02/18 05:22:44;;;;;;;12.77;9.93;;;;;;;1.33;100.00;95824.50;5095188;28;20020;-59
2022/02/18 05:25:10;;;;;;;13.05;10.48;;;;;;;1.33;100.00;95827.09;5090736;28;20025;-61
2022/02/18 05:27:35;;;;;;;17.17;11.90;;;;;;;1.31;100.00;95827.19;5098965;28;20462;-61
2022/02/18 05:30:01;;;;;;;15.98;10.38;;;;;;;1.27;100.00;95829.09;5094663;28;20024;-61
2022/02/18 05:32:26;;;;;;;14.30;10.75;;;;;;;1.19;100.00;95838.19;5095649;28;20050;-61
2022/02/18 05:34:51;;;;;;;12.98;10.32;;;;;;;1.18;100.00;95837.38;5099191;28;20467;-62
2022/02/18 05:37:17;;;;;;;9.55;7.70;;;;;;;1.18;100.00;95831.31;5097274;28;20032;-61
2022/02/18 05:39:42;;;;;;;8.73;7.75;;;;;;;1.16;100.00;95833.16;5098076;28;20032;-61
2022/02/18 05:42:07;;;;;;;9.23;8.27;;;;;;;1.09;100.00;95828.31;5096395;28;20103;-61
2022/02/18 05:44:34;;;;;;;10.43;7.30;;;;;;;1.11;100.00;95830.84;5096944;28;20631;-61
2022/02/18 05:47:00;;;;;;;8.10;7.10;;;;;;;1.14;100.00;95834.09;5095707;28;20176;-61
2022/02/18 05:49:27;;;;;;;9.43;6.90;;;;;;;1.06;100.00;95833.66;5094880;28;20100;-61
2022/02/18 05:51:52;;;;;;;7.18;6.20;;;;;;;1.02;100.00;95826.97;5096631;28;20023;-63
2022/02/18 05:54:17;;;;;;;6.00;5.50;;;;;;;0.97;100.00;95822.00;5093988;28;20548;-61
2022/02/18 05:56:43;;;;;;;5.68;5.15;;;;;;;0.96;100.00;95825.53;5096496;28;20110;-61
2022/02/18 05:59:08;;;;;;;5.82;5.22;;;;;;;0.98;100.00;95822.84;5096340;28;20809;-61
2022/02/18 06:01:34;;;;;;;6.65;5.15;;;;;;;0.94;100.00;95819.59;5096989;28;20130;-62
2022/02/18 06:03:59;;;;;;;6.10;5.50;;;;;;;0.94;100.00;95816.13;5097381;28;20107;-61
2022/02/18 06:06:27;;;;;;;6.93;5.38;;;;;;;0.91;100.00;95816.31;5095409;28;20034;-61
2022/02/18 06:08:52;;;;;;;7.72;6.25;;;;;;;0.89;100.00;95808.63;5095965;28;20020;-61
2022/02/18 06:11:18;;;;;;;6.85;6.25;;;;;;;0.91;100.00;95819.75;5096123;28;20566;-61
2022/02/18 06:13:43;;;;;;;7.15;6.50;;;;;;;0.92;100.00;95813.63;5094309;28;20012;-61
2022/02/18 06:16:08;;;;;;;14.05;9.40;;;;;;;0.88;100.00;95809.50;5092494;28;20020;-61
2022/02/18 06:18:34;;;;;;;14.40;10.20;;;;;;;0.89;100.00;95803.44;5094132;28;20040;-61
2022/02/18 06:20:59;;;;;;;9.85;8.88;;;;;;;0.85;100.00;95792.38;5097600;28;20107;-61
2022/02/18 06:23:24;;;;;;;12.43;7.50;;;;;;;0.79;100.00;95784.06;5097125;28;20050;-61
2022/02/18 06:25:50;;;;;;;9.65;8.68;;;;;;;0.79;100.00;95790.09;5094174;28;20034;-61
2022/02/18 06:28:15;;;;;;;10.52;9.30;;;;;;;0.82;100.00;95779.56;5098063;28;20028;-61
2022/02/18 06:30:41;;;;;;;11.40;10.27;;;;;;;0.87;100.00;95784.50;5094589;28;20100;-61
2022/02/18 06:33:07;;;;;;;12.00;9.52;;;;;;;0.91;100.00;95780.84;5094730;28;20028;-61
2022/02/18 06:35:39;;;;;;;9.70;8.82;;;;;;;0.92;100.00;95773.91;5093812;28;20066;-61
2022/02/18 06:38:05;;;;;;;12.23;9.23;;;;;;;0.92;100.00;95779.94;5094702;28;20020;-61
2022/02/18 06:40:31;;;;;;;9.93;7.93;;;;;;;0.94;100.00;95783.28;5092865;28;20028;-61
2022/02/18 06:42:57;;;;;;;9.10;8.20;;;;;;;0.98;100.00;95777.00;5093411;28;20103;-61
2022/02/18 06:45:23;;;;;;;7.82;7.03;;;;;;;1.05;100.00;95785.31;5093476;28;20471;-61
2022/02/18 06:47:49;;;;;;;8.15;7.03;;;;;;;1.12;100.00;95780.66;5095362;28;20035;-61
2022/02/18 06:50:16;;;;;;;7.25;6.55;;;;;;;1.16;100.00;95789.06;5094931;28;20027;-61
2022/02/18 06:52:45;;;;;;;17.85;14.35;;;;;;;1.24;100.00;95784.34;5095673;28;20107;-61
2022/02/18 06:55:12;;;;;;;10.15;8.05;;;;;;;1.25;100.00;95786.00;5094391;28;20103;-61
2022/02/18 06:57:42;;;;;;;10.93;8.65;;;;;;;1.23;100.00;95786.06;5096174;28;20050;-61
2022/02/18 07:00:09;;;;;;;12.23;8.05;;;;;;;1.21;100.00;95781.88;5097531;28;20024;-61
2022/02/18 07:02:35;;;;;;;15.30;13.50;;;;;;;1.28;100.00;95780.66;5094854;28;20028;-61
2022/02/18 07:05:00;;;;;;;11.07;9.98;;;;;;;1.36;100.00;95785.44;5093681;28;20399;-61
2022/02/18 07:07:26;;;;;;;10.40;8.82;;;;;;;1.43;100.00;95784.16;5096965;28;20051;-61
2022/02/18 07:09:51;;;;;;;9.32;7.97;;;;;;;1.45;100.00;95784.09;5097504;28;20092;-61
2022/02/18 07:12:16;;;;;;;8.25;7.45;;;;;;;1.51;100.00;95783.75;5093861;28;20024;-63
2022/02/18 07:14:42;;;;;;;10.45;8.38;;;;;;;1.61;100.00;95784.91;5097355;28;20452;-61
2022/02/18 07:17:07;;;;;;;10.18;9.18;;;;;;;1.70;100.00;95791.34;5094271;28;20028;-61
2022/02/18 07:19:33;;;;;;;7.97;7.28;;;;;;;1.76;100.00;95783.22;5098034;28;20043;-61
2022/02/18 07:21:59;;;;;;;5.93;5.43;;;;;;;1.89;100.00;95788.59;5092902;28;20032;-62
2022/02/18 07:24:24;;;;;;;5.97;5.38;;;;;;;1.99;100.00;95779.34;5097159;28;20024;-61
2022/02/18 07:26:50;;;;;;;12.50;5.53;;;;;;;2.07;100.00;95773.72;5096703;28;20040;-61
2022/02/18 07:29:15;;;;;;;11.15;5.68;;;;;;;2.11;100.00;95776.97;5091752;28;20028;-61
2022/02/18 07:31:41;;;;;;;5.70;5.22;;;;;;;2.18;100.00;95777.44;5095011;28;20032;-61
2022/02/18 07:34:06;;;;;;;9.63;6.80;;;;;;;2.20;100.00;95786.84;5095970;28;20020;-61
2022/02/18 07:36:31;;;;;;;10.82;9.57;;;;;;;2.21;100.00;95791.09;5095289;28;20094;-61
2022/02/18 07:38:57;;;;;;;14.65;12.73;;;;;;;2.35;100.00;95784.28;5091138;28;20544;-61
2022/02/18 07:41:22;;;;;;;14.50;11.55;;;;;;;2.46;100.00;95784.47;5091721;28;20499;-61
2022/02/18 07:43:48;;;;;;;12.95;11.77;;;;;;;2.64;100.00;95769.56;5092646;28;20055;-60
2022/02/18 07:46:13;;;;;;;11.20;8.77;;;;;;;2.72;100.00;95762.16;5090326;28;20056;-60
2022/02/18 07:48:39;;;;;;;19.70;17.65;;;;;;;2.86;100.00;95760.47;5091791;28;20474;-60
2022/02/18 07:51:06;;;;;;;15.05;13.57;;;;;;;3.00;100.00;95754.44;5091174;28;20028;-59
2022/02/18 07:53:32;;;;;;;13.68;11.23;;;;;;;3.13;100.00;95744.13;5090661;28;20030;-60
2022/02/18 07:55:58;;;;;;;26.38;23.92;;;;;;;3.29;100.00;95751.81;5088113;28;20029;-60
2022/02/18 07:58:23;;;;;;;17.15;15.55;;;;;;;3.36;100.00;95745.28;5090974;28;20077;-60
2022/02/18 08:00:50;;;;;;;9.60;8.60;;;;;;;3.42;100.00;95739.69;5091889;28;20463;-60
2022/02/18 08:03:16;;;;;;;10.70;7.35;;;;;;;3.51;100.00;95732.25;5096697;28;20024;-60
2022/02/18 08:05:41;;;;;;;15.50;9.45;;;;;;;3.59;100.00;95740.38;5097842;28;20032;-60
2022/02/18 08:08:06;;;;;;;7.70;6.90;;;;;;;3.67;100.00;95722.53;5086779;28;20028;-60
2022/02/18 08:10:32;;;;;;;12.73;8.90;;;;;;;3.82;100.00;95723.28;5094204;28;20110;-60
2022/02/18 08:12:57;;;;;;;11.95;9.80;;;;;;;3.94;100.00;95726.03;5094705;28;20035;-60
2022/02/18 08:15:22;;;;;;;8.90;8.07;;;;;;;3.98;100.00;95725.72;5093723;28;20482;-60
2022/02/18 08:17:48;;;;;;;9.88;6.95;;;;;;;4.09;100.00;95717.22;5093965;28;20109;-61
2022/02/18 08:20:14;;;;;;;7.38;6.68;;;;;;;4.21;100.00;95715.56;5093011;28;20032;-60
2022/02/18 08:22:39;;;;;;;7.97;7.15;;;;;;;4.35;100.00;95711.22;5096839;28;20107;-63
2022/02/18 08:25:07;;;;;;;13.23;6.82;;;;;;;4.48;100.00;95712.03;5095876;28;20491;-62
2022/02/18 08:27:32;;;;;;;11.52;8.35;;;;;;;4.55;100.00;95702.88;5096081;28;20028;-63
2022/02/18 08:29:57;;;;;;;11.43;8.45;;;;;;;4.64;100.00;95700.56;5097136;28;20054;-62
2022/02/18 08:32:23;;;;;;;8.82;7.93;;;;;;;4.77;100.00;95706.63;5098563;28;20032;-63
2022/02/18 08:34:48;;;;;;;8.80;7.90;;;;;;;5.10;100.00;95707.00;5095718;28;20116;-62
2022/02/18 08:37:14;;;;;;;9.00;8.15;;;;;;;5.62;100.00;95701.59;5090143;28;20062;-63
2022/02/18 08:39:40;;;;;;;9.80;8.90;;;;;;;5.91;100.00;95690.78;5094732;28;20028;-62
2022/02/18 08:42:07;;;;;;;9.32;6.07;;;;;;;6.05;100.00;95688.03;5076305;28;20034;-61
2022/02/18 08:44:33;;;;;;;6.57;5.70;;;;;;;6.09;100.00;95688.66;5097917;28;20122;-61
2022/02/18 08:46:58;;;;;;;10.90;5.75;;;;;;;5.93;100.00;95679.28;5099328;28;20505;-62
2022/02/18 08:49:23;;;;;;;6.57;5.97;;;;;;;5.82;100.00;95687.91;5098200;28;20480;-62
2022/02/18 08:51:49;;;;;;;7.05;6.45;;;;;;;5.71;100.00;95673.03;5100248;28;20066;-62
2022/02/18 08:54:14;;;;;;;10.20;6.60;;;;;;;5.74;100.00;95675.41;5095696;28;20457;-61
2022/02/18 08:56:40;;;;;;;7.07;6.40;;;;;;;5.80;100.00;95679.38;5096937;28;20059;-62
2022/02/18 08:59:07;;;;;;;9.38;5.63;;;;;;;5.83;100.00;95678.28;5096417;28;20054;-65
2022/02/18 09:01:32;;;;;;;7.72;5.35;;;;;;;5.86;100.00;95678.91;5095979;28;20024;-63
2022/02/18 09:03:58;;;;;;;8.93;7.22;;;;;;;5.95;100.00;95676.53;5094344;28;20101;-62
2022/02/18 09:06:23;;;;;;;9.40;5.88;;;;;;;5.93;100.00;95679.28;5095869;28;20039;-64
2022/02/18 09:08:49;;;;;;;5.80;5.28;;;;;;;5.97;99.55;95680.72;5102520;28;20447;-55
2022/02/18 09:11:16;;;;;;;5.80;5.18;;;;;;;6.13;99.99;95669.97;5092926;28;20086;-54
2022/02/18 09:13:42;;;;;;;4.30;3.95;;;;;;;6.34;99.76;95663.28;5092901;28;20024;-49
2022/02/18 09:16:07;;;;;;;6.15;5.25;;;;;;;6.39;97.15;95658.50;5095627;28;20038;-50
2022/02/18 09:18:33;;;;;;;5.40;4.80;;;;;;;6.50;95.82;95663.75;5093541;28;20068;-52
2022/02/18 09:20:58;;;;;;;4.60;3.45;;;;;;;6.57;96.13;95659.72;5094005;28;20037;-53
2022/02/18 09:23:23;;;;;;;6.18;3.72;;;;;;;6.80;96.32;95651.88;5098430;28;20383;-50
2022/02/18 09:25:49;;;;;;;4.85;4.32;;;;;;;6.99;94.00;95646.03;5093820;28;20030;-49
2022/02/18 09:28:14;;;;;;;3.92;3.63;;;;;;;7.02;93.05;95644.97;5093734;28;20012;-54
2022/02/18 09:30:43;;;;;;;4.47;4.07;;;;;;;7.06;91.69;95635.91;5091238;28;20020;-53
2022/02/18 09:33:11;;;;;;;4.85;3.75;;;;;;;7.06;90.96;95642.91;5094535;28;20067;-53
2022/02/18 09:35:36;;;;;;;4.50;3.40;;;;;;;6.98;88.01;95644.34;5094398;28;20133;-52
2022/02/18 09:38:02;;;;;;;4.13;3.72;;;;;;;6.94;86.78;95648.19;5091833;28;20130;-52
2022/02/18 09:40:27;;;;;;;4.40;3.90;;;;;;;6.92;84.94;95649.25;5092054;28;20020;-50
2022/02/18 09:42:54;;;;;;;8.25;3.53;;;;;;;7.02;85.55;95651.00;5095139;28;20028;-53
2022/02/18 09:45:20;;;;;;;5.53;3.63;;;;;;;7.26;86.14;95657.06;5093941;28;20032;-49
2022/02/18 09:47:47;;;;;;;13.98;3.47;;;;;;;7.39;85.12;95646.44;5092028;28;20036;-53
2022/02/18 09:50:13;;;;;;;4.32;3.58;;;;;;;7.57;85.09;95651.97;5092290;28;20038;-54
2022/02/18 09:52:39;;;;;;;4.07;3.10;;;;;;;7.81;84.64;95648.28;5093209;28;20012;-53
2022/02/18 09:55:05;;;;;;;8.38;3.42;;;;;;;7.90;83.49;95647.56;5094343;28;20082;-51
2022/02/18 09:57:33;;;;;;;4.40;4.00;;;;;;;8.11;83.50;95641.50;5092331;28;20115;-52
2022/02/18 09:59:59;;;;;;;3.85;3.55;;;;;;;8.02;82.00;95640.47;5088103;28;20031;-51
2022/02/18 10:02:25;;;;;;;3.63;3.33;;;;;;;8.09;83.93;95635.56;5090990;28;20108;-48
2022/02/18 10:04:50;;;;;;;5.57;3.83;;;;;;;8.08;83.73;95639.13;5093151;28;20012;-49
2022/02/18 10:07:15;;;;;;;7.20;4.82;;;;;;;8.21;82.53;95631.88;5089820;28;20498;-52
2022/02/18 10:09:49;;;;;;;12.02;6.55;;;;;;;8.15;82.87;95635.03;5094875;28;20035;-51
2022/02/18 10:12:14;;;;;;;6.85;6.15;;;;;;;8.25;83.52;95633.28;5096214;28;20028;-53
2022/02/18 10:15:03;;;;;;;5.70;5.10;;;;;;;8.53;82.93;95619.66;5094676;28;20055;-52
2022/02/18 10:17:43;;;;;;;21.27;14.20;;;;;;;9.14;79.33;95626.63;5090626;28;20533;-51
2022/02/18 10:20:28;;;;;;;23.92;17.25;;;;;;;10.06;76.74;95622.97;5090982;28;20103;-52
2022/02/18 10:23:01;;;;;;;14.32;11.25;;;;;;;10.78;72.94;95612.84;5088778;28;20364;-51
2022/02/18 10:25:32;;;;;;;20.65;16.27;;;;;;;10.90;71.25;95613.47;5089067;28;20028;-50
2022/02/18 10:27:58;;;;;;;8.32;7.53;;;;;;;11.09;70.63;95609.09;5094316;28;20047;-53
2022/02/18 10:30:28;;;;;;;12.65;5.18;;;;;;;11.15;68.96;95601.41;5091742;28;20112;-51
2022/02/18 10:32:55;;;;;;;8.63;4.63;;;;;;;11.11;68.87;95605.31;5093695;28;20390;-51
2022/02/18 10:35:29;;;;;;;5.45;5.03;;;;;;;11.08;67.28;95602.16;5098544;28;20067;-53
2022/02/18 10:37:55;;;;;;;5.30;3.58;;;;;;;11.11;68.42;95601.88;5083486;28;20028;-51
2022/02/18 10:40:23;;;;;;;4.63;2.60;;;;;;;11.33;66.22;95595.34;5096995;28;20044;-54
2022/02/18 10:42:51;;;;;;;3.03;2.83;;;;;;;11.58;65.78;95585.88;5093826;28;20372;-52
2022/02/18 10:45:23;;;;;;;2.97;2.75;;;;;;;12.12;63.21;95578.91;5096796;28;20024;-49
2022/02/18 10:47:51;;;;;;;3.92;2.83;;;;;;;12.22;63.09;95570.91;5075079;28;20028;-53
2022/02/18 10:50:18;;;;;;;3.97;3.00;;;;;;;12.49;62.29;95567.28;5093011;28;20487;-53
2022/02/18 10:53:19;;;;;;;2.95;2.58;;;;;;;12.77;61.84;95559.16;5092358;28;20032;-52
2022/02/18 10:55:53;;;;;;;5.57;2.75;;;;;;;13.27;59.59;95560.13;5093689;28;20028;-48
2022/02/18 10:58:24;;;;;;;2.88;2.33;;;;;;;13.54;59.18;95562.66;5086828;28;20039;-49
2022/02/18 11:01:04;;;;;;;2.88;2.42;;;;;;;13.63;57.60;95567.00;5091889;28;20406;-55
2022/02/18 11:03:30;;;;;;;2.83;2.63;;;;;;;13.81;56.05;95560.69;5094891;28;20511;-53
2022/02/18 11:06:09;;;;;;;3.70;2.35;;;;;;;14.02;54.82;95550.44;5094383;28;20036;-51
2022/02/18 11:08:34;;;;;;;2.42;2.22;;;;;;;14.20;53.46;95559.19;5094268;28;20641;-55
2022/02/18 11:11:11;;;;;;;2.45;2.25;;;;;;;14.15;52.30;95557.06;5092072;28;20035;-54
2022/02/18 11:13:42;;;;;;;1.92;1.83;;;;;;;14.58;51.01;95549.66;5093698;28;20530;-51
2022/02/18 11:16:13;;;;;;;2.85;1.98;;;;;;;14.47;49.76;95548.22;5091467;28;20099;-53
2022/02/18 11:18:39;;;;;;;2.00;1.90;;;;;;;14.41;50.90;95553.34;5093157;28;20040;-54
2022/02/18 11:21:09;;;;;;;5.07;1.88;;;;;;;14.79;51.82;95535.06;5096664;28;20384;-52
2022/02/18 11:23:38;;;;;;;2.35;2.00;;;;;;;14.95;50.96;95536.00;5097011;28;20467;-51
2022/02/18 11:26:03;;;;;;;2.00;1.70;;;;;;;15.15;50.52;95523.97;5090342;28;20032;-53